createdAt,value
2022-11-12T00:01:09.939Z,3.10
2022-11-12T00:06:05.569Z,3.30
2022-11-12T00:25:50.052Z,3.30
2022-11-12T00:28:16.701Z,5.60
2022-11-12T00:30:43.523Z,2.80
2022-11-12T00:33:10.176Z,2.80
2022-11-12T01:02:44.212Z,2.90
2022-11-12T01:10:07.859Z,5.10
2022-11-12T01:12:34.547Z,3.30
2022-11-12T01:15:01.726Z,2.90
2022-11-12T01:17:28.487Z,3.40
2022-11-12T01:19:55.124Z,3.90
2022-11-12T01:22:21.931Z,3.30
2022-11-12T01:24:48.603Z,4.10
2022-11-12T01:27:15.272Z,3.10
2022-11-12T01:29:41.934Z,2.60
2022-11-12T01:32:08.784Z,3.30
2022-11-12T01:34:35.437Z,2.80
2022-11-12T01:37:02.105Z,3.10
2022-11-12T01:39:28.795Z,2.80
2022-11-12T01:41:55.442Z,2.70
2022-11-12T01:44:23.127Z,2.90
2022-11-12T01:47:02.109Z,2.90
2022-11-12T01:49:31.789Z,3.20
2022-11-12T01:52:02.866Z,2.50
2022-11-12T01:54:30.149Z,3.10
2022-11-12T01:56:58.685Z,4.10
2022-11-12T01:59:28.567Z,3.20
2022-11-12T02:01:55.240Z,2.90
2022-11-12T02:04:23.015Z,2.80
2022-11-12T02:06:51.342Z,3.80
2022-11-12T02:09:18.730Z,2.80
2022-11-12T03:13:11.798Z,2.70
2022-11-12T03:15:38.933Z,2.70
2022-11-12T03:18:05.514Z,3.10
2022-11-12T03:20:32.171Z,3.70
2022-11-12T03:23:00.404Z,2.80
2022-11-12T03:25:27.729Z,2.60
2022-11-12T03:28:20.755Z,2.60
2022-11-12T03:30:47.474Z,2.60
2022-11-12T03:33:15.701Z,2.60
2022-11-12T03:35:42.493Z,2.60
2022-11-12T03:38:09.079Z,2.80
2022-11-12T03:40:35.757Z,2.70
2022-11-12T03:43:02.324Z,2.80
2022-11-12T03:45:29.803Z,2.80
2022-11-12T03:47:57.735Z,2.70
2022-11-12T03:50:27.167Z,2.60
2022-11-12T03:52:56.573Z,2.90
2022-11-12T03:55:24.282Z,2.60
2022-11-12T03:57:51.788Z,2.50
2022-11-12T04:00:19.129Z,2.50
2022-11-12T04:02:50.223Z,2.50
2022-11-12T04:05:35.339Z,2.50
2022-11-12T04:08:21.971Z,2.50
2022-11-12T04:10:49.218Z,2.50
2022-11-12T04:13:27.939Z,2.50
2022-11-12T04:16:14.307Z,2.50
2022-11-12T04:18:59.611Z,2.50
2022-11-12T04:21:46.314Z,2.40
2022-11-12T04:24:32.909Z,2.40
2022-11-12T04:27:00.054Z,2.40
2022-11-12T04:29:45.577Z,2.40
2022-11-12T04:32:14.094Z,2.30
2022-11-12T04:34:40.777Z,3.10
2022-11-12T04:37:07.415Z,2.40
2022-11-12T04:42:20.162Z,2.30
2022-11-12T04:45:05.239Z,2.20
2022-11-12T04:47:33.974Z,2.30
2022-11-12T04:50:01.252Z,2.80
2022-11-12T04:52:28.573Z,2.10
2022-11-12T04:54:55.744Z,2.30
2022-11-12T04:57:22.577Z,2.30
2022-11-12T04:59:49.311Z,2.30
2022-11-12T05:02:16.768Z,2.20
2022-11-12T05:04:43.715Z,1.20
2022-11-12T05:07:10.886Z,1.90
2022-11-12T05:09:37.929Z,1.80
2022-11-12T05:12:04.602Z,2.10
2022-11-12T05:14:31.333Z,2.20
2022-11-12T05:16:58.011Z,1.80
2022-11-12T05:19:24.665Z,2.10
2022-11-12T05:22:06.628Z,2.10
2022-11-12T05:24:41.947Z,2.00
2022-11-12T05:27:12.216Z,2.10
2022-11-12T05:29:40.079Z,2.10
2022-11-12T05:32:07.607Z,1.60
2022-11-12T05:37:02.224Z,2.00
2022-11-12T05:39:28.874Z,0.60
2022-11-12T05:42:12.384Z,2.00
2022-11-12T05:44:40.351Z,1.90
2022-11-12T05:47:07.042Z,3.10
2022-11-12T05:49:33.711Z,1.30
2022-11-12T05:52:00.404Z,1.90
2022-11-12T05:54:27.178Z,1.50
2022-11-12T05:56:53.888Z,2.10
2022-11-12T05:59:20.570Z,2.10
2022-11-12T06:01:47.719Z,1.80
2022-11-12T06:04:14.932Z,2.00
2022-11-12T06:11:35.774Z,1.70
2022-11-12T06:14:02.678Z,1.70
2022-11-12T06:16:29.732Z,1.90
2022-11-12T06:18:56.629Z,1.80
2022-11-12T06:21:23.285Z,1.70
2022-11-12T06:23:51.597Z,1.80
2022-11-12T06:26:18.531Z,1.80
2022-11-12T06:28:45.640Z,1.80
2022-11-12T06:31:12.554Z,1.80
2022-11-12T06:33:39.214Z,1.70
2022-11-12T06:36:06.188Z,1.40
2022-11-12T06:38:33.578Z,1.80
2022-11-12T06:41:00.231Z,0.80
2022-11-12T06:43:28.113Z,1.50
2022-11-12T06:45:54.863Z,3.70
2022-11-12T06:48:21.515Z,1.60
2022-11-12T06:50:48.184Z,1.30
2022-11-12T06:53:14.799Z,1.50
2022-11-12T06:55:41.449Z,1.80
2022-11-12T06:58:08.134Z,1.30
2022-11-12T07:00:34.813Z,1.70
2022-11-12T07:03:05.423Z,1.80
2022-11-12T07:05:32.056Z,1.90
2022-11-12T07:07:58.665Z,1.50
2022-11-12T07:10:25.341Z,1.30
2022-11-12T07:12:53.785Z,3.10
2022-11-12T07:15:20.397Z,1.50
2022-11-12T07:17:47.079Z,1.90
2022-11-12T07:20:13.742Z,1.80
2022-11-12T07:22:40.364Z,2.10
2022-11-12T07:25:07.155Z,1.70
2022-11-12T07:27:33.747Z,2.30
2022-11-12T07:30:00.355Z,1.70
2022-11-12T07:32:27.196Z,1.40
2022-11-12T07:34:53.886Z,1.70
2022-11-12T07:37:21.581Z,1.70
2022-11-12T07:39:48.185Z,1.50
2022-11-12T07:42:14.832Z,1.60
2022-11-12T07:44:41.487Z,1.60
2022-11-12T07:47:08.241Z,4.20
2022-11-12T07:49:34.969Z,1.90
2022-11-12T07:52:01.681Z,1.70
2022-11-12T07:54:43.703Z,1.90
2022-11-12T07:57:17.676Z,1.90
2022-11-12T07:59:46.300Z,2.20
2022-11-12T08:02:16.083Z,1.80
2022-11-12T08:04:43.036Z,2.20
2022-11-12T08:07:09.895Z,2.40
2022-11-12T08:09:36.634Z,2.00
2022-11-12T08:12:03.284Z,2.30
2022-11-12T08:14:30.071Z,2.50
2022-11-12T08:16:56.680Z,4.00
2022-11-12T08:19:23.312Z,2.10
2022-11-12T08:21:49.952Z,1.80
2022-11-12T08:24:16.561Z,1.70
2022-11-12T08:26:43.138Z,2.10
2022-11-12T08:29:09.772Z,2.30
2022-11-12T08:31:36.403Z,2.00
2022-11-12T08:34:12.235Z,2.20
2022-11-12T08:36:40.278Z,2.20
2022-11-12T08:39:07.507Z,2.30
2022-11-12T08:41:34.343Z,2.60
2022-11-12T08:44:07.103Z,2.70
2022-11-12T08:46:35.088Z,2.80
2022-11-12T08:51:28.841Z,3.00
2022-11-12T08:53:55.551Z,3.10
2022-11-12T08:56:22.274Z,3.30
2022-11-12T08:58:48.915Z,3.40
2022-11-12T09:01:15.734Z,3.40
2022-11-12T09:03:42.455Z,3.20
2022-11-12T09:06:09.136Z,3.40
2022-11-12T09:08:36.473Z,3.70
2022-11-12T09:25:45.823Z,3.80
2022-11-12T09:28:14.061Z,6.10
2022-11-12T09:50:28.476Z,4.80
2022-11-12T09:53:08.104Z,5.80
2022-11-12T09:55:36.628Z,6.00
2022-11-12T09:58:10.867Z,6.10
2022-11-12T10:00:43.821Z,6.30
2022-11-12T10:03:17.482Z,6.50
2022-11-12T10:06:10.493Z,6.50
2022-11-12T10:08:55.004Z,6.20
2022-11-12T10:12:04.071Z,6.30
2022-11-12T10:14:48.512Z,6.50
2022-11-12T10:22:12.687Z,6.90
2022-11-12T10:24:40.111Z,6.60
2022-11-12T10:27:15.234Z,6.60
2022-11-12T10:29:44.893Z,6.80
2022-11-12T10:39:38.609Z,7.40
2022-11-12T10:42:05.214Z,7.40
2022-11-12T11:11:37.569Z,8.70
2022-11-12T11:56:08.430Z,9.80
2022-11-12T12:02:25.051Z,9.70
2022-11-12T12:05:23.252Z,10.00
2022-11-12T12:08:03.545Z,9.90
2022-11-12T12:10:53.425Z,10.10
2022-11-12T12:13:16.808Z,10.30
2022-11-12T12:16:08.246Z,10.70
2022-11-12T12:18:41.316Z,10.10
2022-11-12T12:21:11.940Z,10.20
2022-11-12T12:26:09.787Z,10.70
2022-11-12T12:28:58.099Z,11.20
2022-11-12T12:31:34.963Z,10.60
2022-11-12T12:37:11.099Z,10.60
2022-11-12T12:39:47.935Z,10.60
2022-11-12T12:42:18.461Z,10.50
2022-11-12T12:45:01.597Z,11.70
2022-11-12T12:47:29.544Z,10.30
2022-11-12T12:49:57.244Z,10.70
2022-11-12T12:52:23.924Z,10.10
2022-11-12T12:54:50.528Z,10.20
2022-11-12T12:57:39.126Z,10.70
2022-11-12T13:00:31.486Z,9.90
2022-11-12T13:02:58.361Z,9.90
2022-11-12T13:05:26.864Z,9.70
2022-11-12T13:07:53.790Z,10.60
2022-11-12T13:10:38.792Z,9.10
2022-11-12T13:13:17.686Z,9.80
2022-11-12T13:15:46.156Z,9.80
2022-11-12T13:21:03.860Z,9.80
2022-11-12T13:24:07.492Z,11.10
2022-11-12T13:26:56.273Z,9.90
2022-11-12T13:29:52.587Z,9.90
2022-11-12T13:32:28.327Z,9.90
2022-11-12T13:35:13.749Z,9.90
2022-11-12T13:37:52.743Z,9.80
2022-11-12T13:40:39.843Z,9.90
2022-11-12T13:43:10.433Z,9.80
2022-11-12T13:45:58.418Z,10.70
2022-11-12T13:48:25.662Z,9.90
2022-11-12T13:50:57.316Z,11.00
2022-11-12T13:53:26.243Z,9.90
2022-11-12T13:55:53.775Z,10.90
2022-11-12T13:58:31.141Z,10.30
2022-11-12T14:00:59.618Z,9.10
2022-11-12T14:03:28.599Z,10.70
2022-11-12T14:05:55.791Z,8.80
2022-11-12T14:08:22.516Z,11.00
2022-11-12T16:13:59.952Z,6.70
2022-11-12T16:18:53.729Z,6.00
2022-11-12T16:23:47.913Z,5.90
2022-11-12T16:26:16.093Z,7.80
2022-11-12T16:28:43.852Z,5.40
2022-11-12T16:33:37.574Z,5.60
2022-11-12T16:38:31.264Z,5.60
2022-11-12T16:40:57.925Z,5.20
2022-11-12T16:43:24.763Z,5.00
2022-11-12T16:45:51.569Z,4.70
2022-11-12T16:48:22.277Z,5.00
2022-11-12T16:50:49.109Z,5.70
2022-11-12T16:53:15.786Z,5.10
2022-11-12T16:55:42.469Z,5.10
2022-11-12T16:58:18.287Z,4.70
2022-11-12T17:00:46.187Z,6.80
2022-11-12T17:03:13.876Z,6.90
2022-11-12T17:05:40.761Z,4.70
2022-11-12T17:08:08.614Z,5.00
2022-11-12T17:10:35.332Z,5.20
2022-11-12T17:13:01.980Z,5.80
2022-11-12T17:15:28.620Z,5.30
2022-11-12T17:17:55.370Z,5.10
2022-11-12T17:20:22.025Z,5.30
2022-11-12T17:22:48.706Z,6.90
2022-11-12T17:25:15.356Z,4.90
2022-11-12T17:30:10.098Z,5.20
2022-11-12T17:32:36.797Z,5.30
2022-11-12T17:35:03.700Z,5.20
2022-11-12T17:37:30.361Z,5.20
2022-11-12T17:39:57.065Z,6.10
2022-11-12T17:42:23.729Z,4.80
2022-11-12T17:44:50.482Z,6.20
2022-11-12T17:47:17.146Z,5.80
2022-11-12T17:49:43.837Z,5.00
2022-11-12T17:52:10.577Z,4.60
2022-11-12T17:54:37.279Z,5.20
2022-11-12T17:57:03.961Z,4.80
2022-11-12T17:59:30.697Z,5.10
2022-11-12T18:01:57.398Z,5.00
2022-11-12T18:04:24.149Z,4.60
2022-11-12T18:06:51.783Z,4.10
2022-11-12T18:09:18.508Z,6.50
2022-11-12T18:11:47.172Z,4.30
2022-11-12T18:14:14.354Z,6.10
2022-11-12T20:06:27.452Z,3.80
2022-11-12T20:09:19.931Z,4.70
2022-11-12T20:38:45.029Z,3.90
2022-11-12T20:41:15.949Z,3.90
2022-11-12T20:46:13.157Z,3.80
2022-11-12T20:48:43.085Z,3.60
2022-11-12T21:33:09.419Z,3.10
2022-11-12T21:35:36.082Z,2.70
2022-11-12T21:38:02.739Z,3.00
2022-11-12T21:40:29.442Z,3.10
2022-11-12T21:42:56.109Z,3.00
2022-11-12T21:45:22.767Z,2.90
2022-11-12T21:47:49.459Z,4.50
2022-11-12T21:50:16.894Z,4.50
2022-11-12T21:52:43.558Z,3.10
2022-11-12T21:55:10.253Z,2.80
2022-11-12T21:57:36.944Z,2.80
2022-11-12T22:00:34.540Z,3.00
2022-11-12T22:02:50.484Z,3.20
2022-11-12T22:05:17.194Z,2.90
2022-11-12T22:07:43.863Z,3.00
2022-11-12T22:10:10.531Z,2.80
2022-11-12T22:12:37.231Z,2.80
2022-11-12T22:15:04.111Z,3.10
2022-11-12T22:17:32.728Z,3.30
2022-11-12T22:19:59.403Z,4.40
2022-11-12T22:22:26.173Z,2.20
2022-11-12T22:24:53.987Z,2.40
2022-11-12T22:27:20.653Z,2.60
2022-11-12T22:29:47.322Z,2.80
2022-11-12T22:32:13.997Z,2.70
2022-11-12T22:34:40.649Z,2.70
2022-11-12T22:37:07.699Z,2.80
2022-11-12T22:42:01.404Z,2.90
2022-11-12T22:51:49.935Z,2.70
2022-11-12T22:54:18.071Z,2.80
2022-11-12T22:56:44.754Z,2.60
2022-11-12T22:59:11.498Z,2.50
2022-11-12T23:16:22.037Z,2.20
2022-11-12T23:18:48.797Z,2.20
2022-11-12T23:21:16.872Z,2.30
2022-11-12T23:23:43.865Z,2.30
2022-11-12T23:26:17.938Z,2.30
2022-11-12T23:28:44.718Z,2.50
2022-11-12T23:31:13.280Z,2.50
2022-11-12T23:33:43.316Z,2.50
2022-11-12T23:36:10.660Z,2.40
2022-11-12T23:38:37.494Z,2.50
2022-11-12T23:41:04.735Z,2.50
2022-11-12T23:43:31.667Z,2.60
2022-11-12T23:45:58.638Z,2.50
2022-11-12T23:48:25.765Z,2.30
